sensor_id;sensor_type;location;lat;lon;timestamp;P1;durP1;ratioP1;P2;durP2;ratioP2
1416;SDS011;703;51.162;13.574;2022-07-17T00:02:12;15.63;;;6.27;;
1416;SDS011;703;51.162;13.574;2022-07-17T00:04:38;16.17;;;6.00;;
1416;SDS011;703;51.162;13.574;2022-07-17T00:07:03;13.00;;;5.83;;
1416;SDS011;703;51.162;13.574;2022-07-17T00:09:29;18.73;;;6.77;;
1416;SDS011;703;51.162;13.574;2022-07-17T00:11:55;19.00;;;6.97;;
1416;SDS011;703;51.162;13.574;2022-07-17T00:14:20;16.77;;;6.40;;
1416;SDS011;703;51.162;13.574;2022-07-17T00:16:46;16.70;;;8.33;;
1416;SDS011;703;51.162;13.574;2022-07-17T00:19:11;23.73;;;7.30;;
1416;SDS011;703;51.162;13.574;2022-07-17T00:21:37;31.37;;;7.40;;
1416;SDS011;703;51.162;13.574;2022-07-17T00:24:02;17.10;;;7.03;;
1416;SDS011;703;51.162;13.574;2022-07-17T00:26:31;17.63;;;6.13;;
1416;SDS011;703;51.162;13.574;2022-07-17T00:28:57;17.23;;;7.37;;
1416;SDS011;703;51.162;13.574;2022-07-17T00:31:22;14.90;;;6.30;;
1416;SDS011;703;51.162;13.574;2022-07-17T00:33:48;19.50;;;8.00;;
1416;SDS011;703;51.162;13.574;2022-07-17T00:36:13;24.83;;;9.97;;
1416;SDS011;703;51.162;13.574;2022-07-17T00:38:39;17.60;;;7.20;;
1416;SDS011;703;51.162;13.574;2022-07-17T00:41:04;19.73;;;6.60;;
1416;SDS011;703;51.162;13.574;2022-07-17T00:43:30;13.40;;;6.73;;
1416;SDS011;703;51.162;13.574;2022-07-17T00:45:56;15.30;;;7.07;;
1416;SDS011;703;51.162;13.574;2022-07-17T00:48:23;17.20;;;8.10;;
1416;SDS011;703;51.162;13.574;2022-07-17T00:50:49;19.17;;;9.17;;
1416;SDS011;703;51.162;13.574;2022-07-17T00:53:14;16.77;;;8.10;;
1416;SDS011;703;51.162;13.574;2022-07-17T00:55:40;13.07;;;6.40;;
1416;SDS011;703;51.162;13.574;2022-07-17T00:58:06;16.50;;;6.23;;
1416;SDS011;703;51.162;13.574;2022-07-17T01:00:34;14.93;;;6.60;;
1416;SDS011;703;51.162;13.574;2022-07-17T01:03:00;20.37;;;6.37;;
1416;SDS011;703;51.162;13.574;2022-07-17T01:05:26;15.73;;;6.60;;
1416;SDS011;703;51.162;13.574;2022-07-17T01:07:51;27.33;;;9.47;;
1416;SDS011;703;51.162;13.574;2022-07-17T01:10:17;20.90;;;7.73;;
1416;SDS011;703;51.162;13.574;2022-07-17T01:12:44;18.97;;;9.07;;
1416;SDS011;703;51.162;13.574;2022-07-17T01:15:10;18.43;;;7.40;;
1416;SDS011;703;51.162;13.574;2022-07-17T01:17:37;20.50;;;9.13;;
1416;SDS011;703;51.162;13.574;2022-07-17T01:20:03;16.93;;;7.20;;
1416;SDS011;703;51.162;13.574;2022-07-17T01:22:30;19.30;;;7.87;;
1416;SDS011;703;51.162;13.574;2022-07-17T01:24:56;22.03;;;6.47;;
1416;SDS011;703;51.162;13.574;2022-07-17T01:27:22;17.57;;;6.67;;
1416;SDS011;703;51.162;13.574;2022-07-17T01:29:47;15.57;;;7.23;;
1416;SDS011;703;51.162;13.574;2022-07-17T01:32:13;16.30;;;7.37;;
1416;SDS011;703;51.162;13.574;2022-07-17T01:34:38;16.00;;;6.97;;
1416;SDS011;703;51.162;13.574;2022-07-17T01:37:04;22.90;;;8.87;;
1416;SDS011;703;51.162;13.574;2022-07-17T01:39:29;21.73;;;8.10;;
1416;SDS011;703;51.162;13.574;2022-07-17T01:42:13;18.60;;;7.63;;
1416;SDS011;703;51.162;13.574;2022-07-17T01:44:39;26.57;;;9.80;;
1416;SDS011;703;51.162;13.574;2022-07-17T01:47:04;19.03;;;8.10;;
1416;SDS011;703;51.162;13.574;2022-07-17T01:49:30;22.93;;;7.73;;
1416;SDS011;703;51.162;13.574;2022-07-17T01:51:55;20.73;;;8.57;;
1416;SDS011;703;51.162;13.574;2022-07-17T01:54:24;19.90;;;8.37;;
1416;SDS011;703;51.162;13.574;2022-07-17T01:56:53;25.70;;;8.40;;
1416;SDS011;703;51.162;13.574;2022-07-17T01:59:18;18.13;;;7.83;;
1416;SDS011;703;51.162;13.574;2022-07-17T02:01:44;13.23;;;5.43;;
1416;SDS011;703;51.162;13.574;2022-07-17T02:04:09;14.90;;;6.30;;
1416;SDS011;703;51.162;13.574;2022-07-17T02:06:35;15.20;;;7.97;;
1416;SDS011;703;51.162;13.574;2022-07-17T02:09:01;18.40;;;6.23;;
1416;SDS011;703;51.162;13.574;2022-07-17T02:11:26;26.77;;;11.03;;
1416;SDS011;703;51.162;13.574;2022-07-17T02:13:52;35.07;;;14.80;;
1416;SDS011;703;51.162;13.574;2022-07-17T02:16:17;37.30;;;14.40;;
1416;SDS011;703;51.162;13.574;2022-07-17T02:18:42;29.00;;;10.57;;
1416;SDS011;703;51.162;13.574;2022-07-17T02:21:08;23.53;;;10.33;;
1416;SDS011;703;51.162;13.574;2022-07-17T02:23:33;20.53;;;8.20;;
1416;SDS011;703;51.162;13.574;2022-07-17T02:25:59;15.90;;;7.10;;
1416;SDS011;703;51.162;13.574;2022-07-17T02:28:24;23.83;;;7.90;;
1416;SDS011;703;51.162;13.574;2022-07-17T02:30:50;20.77;;;7.93;;
1416;SDS011;703;51.162;13.574;2022-07-17T02:33:15;25.00;;;11.63;;
1416;SDS011;703;51.162;13.574;2022-07-17T02:35:41;32.60;;;10.40;;
1416;SDS011;703;51.162;13.574;2022-07-17T02:38:06;33.40;;;10.30;;
1416;SDS011;703;51.162;13.574;2022-07-17T02:40:32;19.07;;;8.27;;
1416;SDS011;703;51.162;13.574;2022-07-17T02:42:57;22.43;;;8.13;;
1416;SDS011;703;51.162;13.574;2022-07-17T02:45:23;17.93;;;8.00;;
1416;SDS011;703;51.162;13.574;2022-07-17T02:47:52;27.50;;;11.27;;
1416;SDS011;703;51.162;13.574;2022-07-17T02:50:22;19.80;;;7.50;;
1416;SDS011;703;51.162;13.574;2022-07-17T02:52:47;17.60;;;7.47;;
1416;SDS011;703;51.162;13.574;2022-07-17T02:55:14;18.00;;;8.20;;
1416;SDS011;703;51.162;13.574;2022-07-17T02:57:41;20.13;;;7.00;;
1416;SDS011;703;51.162;13.574;2022-07-17T03:00:08;19.20;;;8.80;;
1416;SDS011;703;51.162;13.574;2022-07-17T03:02:35;16.37;;;6.67;;
1416;SDS011;703;51.162;13.574;2022-07-17T03:05:02;21.80;;;9.73;;
1416;SDS011;703;51.162;13.574;2022-07-17T03:07:28;25.57;;;10.90;;
1416;SDS011;703;51.162;13.574;2022-07-17T03:09:54;19.70;;;9.10;;
1416;SDS011;703;51.162;13.574;2022-07-17T03:12:19;24.80;;;11.83;;
1416;SDS011;703;51.162;13.574;2022-07-17T03:14:44;16.90;;;8.60;;
1416;SDS011;703;51.162;13.574;2022-07-17T03:17:10;20.17;;;8.10;;
1416;SDS011;703;51.162;13.574;2022-07-17T03:19:36;22.67;;;9.00;;
1416;SDS011;703;51.162;13.574;2022-07-17T03:22:01;19.87;;;8.50;;
1416;SDS011;703;51.162;13.574;2022-07-17T03:24:27;17.17;;;7.40;;
1416;SDS011;703;51.162;13.574;2022-07-17T03:26:52;21.30;;;7.40;;
1416;SDS011;703;51.162;13.574;2022-07-17T03:29:18;15.70;;;7.20;;
1416;SDS011;703;51.162;13.574;2022-07-17T03:31:47;13.77;;;5.00;;
1416;SDS011;703;51.162;13.574;2022-07-17T03:34:12;23.20;;;7.93;;
1416;SDS011;703;51.162;13.574;2022-07-17T03:36:38;16.70;;;8.63;;
1416;SDS011;703;51.162;13.574;2022-07-17T03:39:04;22.40;;;10.10;;
1416;SDS011;703;51.162;13.574;2022-07-17T03:41:29;24.80;;;10.23;;
1416;SDS011;703;51.162;13.574;2022-07-17T03:43:55;20.57;;;9.57;;
1416;SDS011;703;51.162;13.574;2022-07-17T03:46:20;18.70;;;10.37;;
1416;SDS011;703;51.162;13.574;2022-07-17T03:48:46;21.73;;;10.00;;
1416;SDS011;703;51.162;13.574;2022-07-17T03:51:12;27.30;;;15.17;;
1416;SDS011;703;51.162;13.574;2022-07-17T03:53:37;35.30;;;18.90;;
1416;SDS011;703;51.162;13.574;2022-07-17T03:56:03;47.07;;;29.97;;
1416;SDS011;703;51.162;13.574;2022-07-17T03:58:29;41.30;;;22.90;;
1416;SDS011;703;51.162;13.574;2022-07-17T04:00:55;34.63;;;20.50;;
1416;SDS011;703;51.162;13.574;2022-07-17T04:03:21;21.50;;;10.30;;
1416;SDS011;703;51.162;13.574;2022-07-17T04:05:47;13.63;;;5.13;;
1416;SDS011;703;51.162;13.574;2022-07-17T04:08:12;13.23;;;4.83;;
1416;SDS011;703;51.162;13.574;2022-07-17T04:10:38;12.23;;;5.93;;
1416;SDS011;703;51.162;13.574;2022-07-17T04:13:04;10.67;;;5.17;;
1416;SDS011;703;51.162;13.574;2022-07-17T04:15:29;11.07;;;4.57;;
1416;SDS011;703;51.162;13.574;2022-07-17T04:18:15;12.90;;;5.60;;
1416;SDS011;703;51.162;13.574;2022-07-17T04:20:41;12.90;;;5.50;;
1416;SDS011;703;51.162;13.574;2022-07-17T04:23:08;12.67;;;4.73;;
1416;SDS011;703;51.162;13.574;2022-07-17T04:25:33;15.47;;;4.57;;
1416;SDS011;703;51.162;13.574;2022-07-17T04:27:59;12.70;;;5.40;;
1416;SDS011;703;51.162;13.574;2022-07-17T04:30:25;21.83;;;7.73;;
1416;SDS011;703;51.162;13.574;2022-07-17T04:32:50;10.90;;;4.80;;
1416;SDS011;703;51.162;13.574;2022-07-17T04:35:16;10.47;;;5.03;;
1416;SDS011;703;51.162;13.574;2022-07-17T04:37:42;15.50;;;5.50;;
1416;SDS011;703;51.162;13.574;2022-07-17T04:40:07;15.67;;;5.70;;
1416;SDS011;703;51.162;13.574;2022-07-17T04:42:33;11.60;;;5.37;;
1416;SDS011;703;51.162;13.574;2022-07-17T04:44:59;10.73;;;4.70;;
1416;SDS011;703;51.162;13.574;2022-07-17T04:47:24;17.37;;;5.27;;
1416;SDS011;703;51.162;13.574;2022-07-17T04:49:50;12.33;;;4.60;;
1416;SDS011;703;51.162;13.574;2022-07-17T04:52:15;12.97;;;5.07;;
1416;SDS011;703;51.162;13.574;2022-07-17T04:54:41;13.00;;;4.37;;
1416;SDS011;703;51.162;13.574;2022-07-17T04:57:06;13.97;;;4.60;;
1416;SDS011;703;51.162;13.574;2022-07-17T04:59:32;12.80;;;4.00;;
1416;SDS011;703;51.162;13.574;2022-07-17T05:01:57;11.63;;;4.70;;
1416;SDS011;703;51.162;13.574;2022-07-17T05:04:23;17.53;;;4.50;;
1416;SDS011;703;51.162;13.574;2022-07-17T05:06:49;13.83;;;4.73;;
1416;SDS011;703;51.162;13.574;2022-07-17T05:09:15;12.30;;;4.73;;
1416;SDS011;703;51.162;13.574;2022-07-17T05:11:40;12.10;;;4.77;;
1416;SDS011;703;51.162;13.574;2022-07-17T05:14:07;11.30;;;4.30;;
1416;SDS011;703;51.162;13.574;2022-07-17T05:16:32;11.30;;;4.40;;
1416;SDS011;703;51.162;13.574;2022-07-17T05:18:57;11.30;;;4.07;;
1416;SDS011;703;51.162;13.574;2022-07-17T05:21:23;12.20;;;4.23;;
1416;SDS011;703;51.162;13.574;2022-07-17T05:23:48;10.50;;;4.17;;
1416;SDS011;703;51.162;13.574;2022-07-17T05:26:14;12.43;;;3.90;;
1416;SDS011;703;51.162;13.574;2022-07-17T05:28:39;11.00;;;4.37;;
1416;SDS011;703;51.162;13.574;2022-07-17T05:31:05;9.93;;;3.80;;
1416;SDS011;703;51.162;13.574;2022-07-17T05:33:30;12.03;;;4.50;;
1416;SDS011;703;51.162;13.574;2022-07-17T05:35:56;12.63;;;3.97;;
1416;SDS011;703;51.162;13.574;2022-07-17T05:38:22;12.97;;;3.90;;
1416;SDS011;703;51.162;13.574;2022-07-17T05:40:47;11.80;;;3.90;;
1416;SDS011;703;51.162;13.574;2022-07-17T05:43:12;14.17;;;4.80;;
1416;SDS011;703;51.162;13.574;2022-07-17T05:45:38;10.40;;;3.80;;
1416;SDS011;703;51.162;13.574;2022-07-17T05:48:04;12.40;;;3.70;;
1416;SDS011;703;51.162;13.574;2022-07-17T05:50:33;9.97;;;4.00;;
1416;SDS011;703;51.162;13.574;2022-07-17T05:52:59;11.73;;;3.33;;
1416;SDS011;703;51.162;13.574;2022-07-17T05:55:25;12.37;;;3.80;;
1416;SDS011;703;51.162;13.574;2022-07-17T05:57:51;12.00;;;3.33;;
1416;SDS011;703;51.162;13.574;2022-07-17T06:00:16;10.27;;;3.93;;
1416;SDS011;703;51.162;13.574;2022-07-17T06:02:43;13.67;;;3.93;;
1416;SDS011;703;51.162;13.574;2022-07-17T06:05:09;12.37;;;4.23;;
1416;SDS011;703;51.162;13.574;2022-07-17T06:07:35;11.00;;;3.67;;
1416;SDS011;703;51.162;13.574;2022-07-17T06:10:02;11.30;;;3.50;;
1416;SDS011;703;51.162;13.574;2022-07-17T06:12:28;10.80;;;3.70;;
1416;SDS011;703;51.162;13.574;2022-07-17T06:14:53;12.10;;;3.60;;
1416;SDS011;703;51.162;13.574;2022-07-17T06:17:19;13.20;;;3.67;;
1416;SDS011;703;51.162;13.574;2022-07-17T06:19:44;16.23;;;4.50;;
1416;SDS011;703;51.162;13.574;2022-07-17T06:22:10;10.63;;;3.57;;
1416;SDS011;703;51.162;13.574;2022-07-17T06:24:35;12.00;;;3.70;;
1416;SDS011;703;51.162;13.574;2022-07-17T06:27:01;16.73;;;3.40;;
1416;SDS011;703;51.162;13.574;2022-07-17T06:29:26;12.83;;;4.53;;
1416;SDS011;703;51.162;13.574;2022-07-17T06:31:52;15.90;;;3.50;;
1416;SDS011;703;51.162;13.574;2022-07-17T06:34:17;11.20;;;3.23;;
1416;SDS011;703;51.162;13.574;2022-07-17T06:36:43;10.03;;;3.77;;
1416;SDS011;703;51.162;13.574;2022-07-17T06:39:08;12.90;;;3.37;;
1416;SDS011;703;51.162;13.574;2022-07-17T06:41:34;11.97;;;3.30;;
1416;SDS011;703;51.162;13.574;2022-07-17T06:43:59;16.53;;;3.63;;
1416;SDS011;703;51.162;13.574;2022-07-17T06:46:25;10.10;;;3.10;;
1416;SDS011;703;51.162;13.574;2022-07-17T06:48:50;11.60;;;3.60;;
1416;SDS011;703;51.162;13.574;2022-07-17T06:51:17;10.70;;;3.50;;
1416;SDS011;703;51.162;13.574;2022-07-17T06:53:43;11.43;;;3.30;;
1416;SDS011;703;51.162;13.574;2022-07-17T06:56:08;11.47;;;3.03;;
1416;SDS011;703;51.162;13.574;2022-07-17T06:58:34;10.67;;;3.30;;
1416;SDS011;703;51.162;13.574;2022-07-17T07:01:00;11.07;;;3.40;;
1416;SDS011;703;51.162;13.574;2022-07-17T07:03:25;12.67;;;3.07;;
1416;SDS011;703;51.162;13.574;2022-07-17T07:05:51;11.77;;;2.77;;
1416;SDS011;703;51.162;13.574;2022-07-17T07:08:17;11.27;;;3.10;;
1416;SDS011;703;51.162;13.574;2022-07-17T07:10:42;12.23;;;3.27;;
1416;SDS011;703;51.162;13.574;2022-07-17T07:13:09;11.23;;;2.77;;
1416;SDS011;703;51.162;13.574;2022-07-17T07:15:34;13.53;;;2.87;;
1416;SDS011;703;51.162;13.574;2022-07-17T07:18:00;11.27;;;3.30;;
1416;SDS011;703;51.162;13.574;2022-07-17T07:20:26;10.23;;;2.83;;
1416;SDS011;703;51.162;13.574;2022-07-17T07:22:51;13.53;;;3.60;;
1416;SDS011;703;51.162;13.574;2022-07-17T07:25:17;24.57;;;4.53;;
1416;SDS011;703;51.162;13.574;2022-07-17T07:27:42;15.37;;;3.40;;
1416;SDS011;703;51.162;13.574;2022-07-17T07:30:08;11.50;;;3.20;;
1416;SDS011;703;51.162;13.574;2022-07-17T07:32:34;12.17;;;2.83;;
1416;SDS011;703;51.162;13.574;2022-07-17T07:35:01;12.10;;;3.50;;
1416;SDS011;703;51.162;13.574;2022-07-17T07:37:27;10.67;;;2.70;;
1416;SDS011;703;51.162;13.574;2022-07-17T07:39:53;12.43;;;3.00;;
1416;SDS011;703;51.162;13.574;2022-07-17T07:42:18;13.27;;;3.03;;
1416;SDS011;703;51.162;13.574;2022-07-17T07:44:44;17.90;;;2.90;;
1416;SDS011;703;51.162;13.574;2022-07-17T07:47:10;10.97;;;3.27;;
1416;SDS011;703;51.162;13.574;2022-07-17T07:49:36;10.00;;;2.77;;
1416;SDS011;703;51.162;13.574;2022-07-17T07:52:01;9.47;;;2.50;;
1416;SDS011;703;51.162;13.574;2022-07-17T07:54:27;10.70;;;3.20;;
1416;SDS011;703;51.162;13.574;2022-07-17T07:56:53;15.60;;;3.00;;
1416;SDS011;703;51.162;13.574;2022-07-17T07:59:19;10.80;;;2.87;;
1416;SDS011;703;51.162;13.574;2022-07-17T08:01:45;18.80;;;3.60;;
1416;SDS011;703;51.162;13.574;2022-07-17T08:04:10;10.03;;;2.57;;
1416;SDS011;703;51.162;13.574;2022-07-17T08:06:36;9.23;;;1.80;;
1416;SDS011;703;51.162;13.574;2022-07-17T08:09:01;9.30;;;2.20;;
1416;SDS011;703;51.162;13.574;2022-07-17T08:11:27;13.83;;;3.10;;
1416;SDS011;703;51.162;13.574;2022-07-17T08:13:52;9.97;;;2.30;;
1416;SDS011;703;51.162;13.574;2022-07-17T08:16:18;9.97;;;1.90;;
1416;SDS011;703;51.162;13.574;2022-07-17T08:18:43;10.10;;;2.40;;
1416;SDS011;703;51.162;13.574;2022-07-17T08:21:09;11.07;;;2.40;;
1416;SDS011;703;51.162;13.574;2022-07-17T08:23:34;9.90;;;2.80;;
1416;SDS011;703;51.162;13.574;2022-07-17T08:26:00;12.73;;;2.90;;
1416;SDS011;703;51.162;13.574;2022-07-17T08:28:26;11.07;;;2.60;;
1416;SDS011;703;51.162;13.574;2022-07-17T08:30:52;12.93;;;3.50;;
1416;SDS011;703;51.162;13.574;2022-07-17T08:33:17;11.43;;;3.03;;
1416;SDS011;703;51.162;13.574;2022-07-17T08:35:43;12.23;;;2.97;;
1416;SDS011;703;51.162;13.574;2022-07-17T08:38:08;11.90;;;2.93;;
1416;SDS011;703;51.162;13.574;2022-07-17T08:40:35;11.47;;;2.83;;
1416;SDS011;703;51.162;13.574;2022-07-17T08:43:02;10.87;;;2.87;;
1416;SDS011;703;51.162;13.574;2022-07-17T08:45:29;13.80;;;2.47;;
1416;SDS011;703;51.162;13.574;2022-07-17T08:47:55;11.50;;;3.20;;
1416;SDS011;703;51.162;13.574;2022-07-17T08:50:22;11.50;;;2.37;;
1416;SDS011;703;51.162;13.574;2022-07-17T08:52:49;9.97;;;2.57;;
1416;SDS011;703;51.162;13.574;2022-07-17T08:55:16;13.47;;;2.77;;
1416;SDS011;703;51.162;13.574;2022-07-17T08:57:42;12.10;;;2.43;;
1416;SDS011;703;51.162;13.574;2022-07-17T09:00:09;13.90;;;2.97;;
1416;SDS011;703;51.162;13.574;2022-07-17T09:02:38;11.23;;;2.50;;
1416;SDS011;703;51.162;13.574;2022-07-17T09:05:04;13.30;;;3.63;;
1416;SDS011;703;51.162;13.574;2022-07-17T09:07:31;12.30;;;2.57;;
1416;SDS011;703;51.162;13.574;2022-07-17T09:09:57;9.57;;;2.40;;
1416;SDS011;703;51.162;13.574;2022-07-17T09:12:27;11.07;;;2.43;;
1416;SDS011;703;51.162;13.574;2022-07-17T09:14:54;9.90;;;2.30;;
1416;SDS011;703;51.162;13.574;2022-07-17T09:17:20;10.10;;;3.03;;
1416;SDS011;703;51.162;13.574;2022-07-17T09:19:45;12.80;;;2.50;;
1416;SDS011;703;51.162;13.574;2022-07-17T09:22:21;13.77;;;3.00;;
1416;SDS011;703;51.162;13.574;2022-07-17T09:24:49;11.10;;;2.70;;
1416;SDS011;703;51.162;13.574;2022-07-17T09:29:52;9.50;;;2.47;;
1416;SDS011;703;51.162;13.574;2022-07-17T09:32:22;11.73;;;2.20;;
1416;SDS011;703;51.162;13.574;2022-07-17T09:34:50;10.40;;;2.70;;
1416;SDS011;703;51.162;13.574;2022-07-17T09:37:16;10.43;;;2.33;;
1416;SDS011;703;51.162;13.574;2022-07-17T09:39:42;11.00;;;2.10;;
1416;SDS011;703;51.162;13.574;2022-07-17T09:42:08;10.10;;;2.80;;
1416;SDS011;703;51.162;13.574;2022-07-17T09:44:34;9.40;;;2.17;;
1416;SDS011;703;51.162;13.574;2022-07-17T09:47:00;10.03;;;2.43;;
1416;SDS011;703;51.162;13.574;2022-07-17T09:49:27;13.00;;;2.97;;
1416;SDS011;703;51.162;13.574;2022-07-17T09:51:53;10.80;;;2.40;;
1416;SDS011;703;51.162;13.574;2022-07-17T09:54:22;11.53;;;2.00;;
1416;SDS011;703;51.162;13.574;2022-07-17T09:56:52;11.87;;;2.50;;
1416;SDS011;703;51.162;13.574;2022-07-17T09:59:23;9.90;;;2.30;;
1416;SDS011;703;51.162;13.574;2022-07-17T10:01:54;10.13;;;2.00;;
1416;SDS011;703;51.162;13.574;2022-07-17T10:04:20;9.50;;;2.30;;
1416;SDS011;703;51.162;13.574;2022-07-17T10:06:45;10.27;;;2.70;;
1416;SDS011;703;51.162;13.574;2022-07-17T10:09:11;10.60;;;2.17;;
1416;SDS011;703;51.162;13.574;2022-07-17T10:11:38;9.60;;;2.53;;
1416;SDS011;703;51.162;13.574;2022-07-17T10:14:06;11.60;;;2.87;;
1416;SDS011;703;51.162;13.574;2022-07-17T10:16:36;10.20;;;2.20;;
1416;SDS011;703;51.162;13.574;2022-07-17T10:19:14;10.00;;;2.00;;
1416;SDS011;703;51.162;13.574;2022-07-17T10:21:51;9.43;;;1.90;;
1416;SDS011;703;51.162;13.574;2022-07-17T10:24:29;10.03;;;2.07;;
1416;SDS011;703;51.162;13.574;2022-07-17T10:26:55;11.00;;;2.27;;
1416;SDS011;703;51.162;13.574;2022-07-17T10:29:35;9.57;;;2.23;;
1416;SDS011;703;51.162;13.574;2022-07-17T10:32:06;10.70;;;2.50;;
1416;SDS011;703;51.162;13.574;2022-07-17T10:34:44;10.43;;;2.67;;
1416;SDS011;703;51.162;13.574;2022-07-17T10:37:15;10.43;;;2.60;;
1416;SDS011;703;51.162;13.574;2022-07-17T10:39:58;10.87;;;2.67;;
1416;SDS011;703;51.162;13.574;2022-07-17T10:45:09;11.83;;;2.83;;
1416;SDS011;703;51.162;13.574;2022-07-17T10:50:32;11.50;;;1.90;;
1416;SDS011;703;51.162;13.574;2022-07-17T10:53:11;11.50;;;2.77;;
1416;SDS011;703;51.162;13.574;2022-07-17T10:55:49;13.60;;;2.10;;
1416;SDS011;703;51.162;13.574;2022-07-17T11:01:05;11.30;;;2.20;;
1416;SDS011;703;51.162;13.574;2022-07-17T11:03:36;9.27;;;2.10;;
1416;SDS011;703;51.162;13.574;2022-07-17T11:06:12;10.30;;;2.33;;
1416;SDS011;703;51.162;13.574;2022-07-17T11:08:48;13.73;;;3.07;;
1416;SDS011;703;51.162;13.574;2022-07-17T11:11:15;10.27;;;2.30;;
1416;SDS011;703;51.162;13.574;2022-07-17T11:13:42;10.27;;;2.30;;
1416;SDS011;703;51.162;13.574;2022-07-17T11:16:07;11.30;;;1.93;;
1416;SDS011;703;51.162;13.574;2022-07-17T11:18:33;10.60;;;1.70;;
1416;SDS011;703;51.162;13.574;2022-07-17T11:21:00;10.97;;;2.33;;
1416;SDS011;703;51.162;13.574;2022-07-17T11:23:29;13.63;;;2.77;;
1416;SDS011;703;51.162;13.574;2022-07-17T11:25:57;11.37;;;2.33;;
1416;SDS011;703;51.162;13.574;2022-07-17T11:28:30;11.83;;;1.87;;
1416;SDS011;703;51.162;13.574;2022-07-17T11:30:57;12.30;;;2.13;;
1416;SDS011;703;51.162;13.574;2022-07-17T11:33:23;9.00;;;1.70;;
1416;SDS011;703;51.162;13.574;2022-07-17T11:35:49;10.03;;;2.10;;
1416;SDS011;703;51.162;13.574;2022-07-17T11:38:14;10.70;;;2.07;;
1416;SDS011;703;51.162;13.574;2022-07-17T11:40:49;10.73;;;1.90;;
1416;SDS011;703;51.162;13.574;2022-07-17T11:43:15;10.80;;;2.20;;
1416;SDS011;703;51.162;13.574;2022-07-17T11:45:41;9.80;;;1.80;;
1416;SDS011;703;51.162;13.574;2022-07-17T11:48:07;8.90;;;1.43;;
1416;SDS011;703;51.162;13.574;2022-07-17T11:50:33;9.67;;;1.83;;
1416;SDS011;703;51.162;13.574;2022-07-17T11:53:03;9.50;;;1.60;;
1416;SDS011;703;51.162;13.574;2022-07-17T11:55:37;10.60;;;2.43;;
1416;SDS011;703;51.162;13.574;2022-07-17T11:58:04;9.80;;;2.27;;
1416;SDS011;703;51.162;13.574;2022-07-17T12:00:30;9.90;;;2.00;;
1416;SDS011;703;51.162;13.574;2022-07-17T12:03:03;9.70;;;2.03;;
1416;SDS011;703;51.162;13.574;2022-07-17T12:05:31;10.67;;;1.70;;
1416;SDS011;703;51.162;13.574;2022-07-17T12:07:59;9.00;;;1.70;;
1416;SDS011;703;51.162;13.574;2022-07-17T12:10:26;10.27;;;2.53;;
1416;SDS011;703;51.162;13.574;2022-07-17T12:12:54;9.67;;;2.10;;
1416;SDS011;703;51.162;13.574;2022-07-17T12:18:04;10.60;;;2.00;;
1416;SDS011;703;51.162;13.574;2022-07-17T12:20:43;9.03;;;1.87;;
1416;SDS011;703;51.162;13.574;2022-07-17T12:23:25;10.30;;;2.40;;
1416;SDS011;703;51.162;13.574;2022-07-17T12:26:02;9.87;;;1.80;;
1416;SDS011;703;51.162;13.574;2022-07-17T12:28:32;9.70;;;1.90;;
1416;SDS011;703;51.162;13.574;2022-07-17T12:30:57;9.17;;;2.00;;
1416;SDS011;703;51.162;13.574;2022-07-17T12:33:23;10.40;;;1.90;;
1416;SDS011;703;51.162;13.574;2022-07-17T12:35:48;12.73;;;1.90;;
1416;SDS011;703;51.162;13.574;2022-07-17T12:38:14;13.87;;;2.10;;
1416;SDS011;703;51.162;13.574;2022-07-17T12:40:40;10.93;;;2.50;;
1416;SDS011;703;51.162;13.574;2022-07-17T12:43:05;10.03;;;1.90;;
1416;SDS011;703;51.162;13.574;2022-07-17T12:45:31;9.30;;;1.47;;
1416;SDS011;703;51.162;13.574;2022-07-17T12:47:57;9.43;;;2.30;;
1416;SDS011;703;51.162;13.574;2022-07-17T12:50:22;10.10;;;1.87;;
1416;SDS011;703;51.162;13.574;2022-07-17T12:52:48;9.33;;;1.33;;
1416;SDS011;703;51.162;13.574;2022-07-17T12:55:13;8.53;;;1.67;;
1416;SDS011;703;51.162;13.574;2022-07-17T12:57:39;9.00;;;1.83;;
1416;SDS011;703;51.162;13.574;2022-07-17T13:00:04;9.00;;;1.77;;
1416;SDS011;703;51.162;13.574;2022-07-17T13:02:30;12.03;;;2.03;;
1416;SDS011;703;51.162;13.574;2022-07-17T13:04:56;9.47;;;1.80;;
1416;SDS011;703;51.162;13.574;2022-07-17T13:07:22;12.00;;;2.43;;
1416;SDS011;703;51.162;13.574;2022-07-17T13:09:47;9.67;;;2.63;;
1416;SDS011;703;51.162;13.574;2022-07-17T13:12:13;10.03;;;2.00;;
1416;SDS011;703;51.162;13.574;2022-07-17T13:14:38;9.83;;;2.13;;
1416;SDS011;703;51.162;13.574;2022-07-17T13:17:04;9.47;;;1.70;;
1416;SDS011;703;51.162;13.574;2022-07-17T13:19:29;10.10;;;1.73;;
1416;SDS011;703;51.162;13.574;2022-07-17T13:21:55;9.30;;;2.00;;
1416;SDS011;703;51.162;13.574;2022-07-17T13:24:20;10.20;;;2.10;;
1416;SDS011;703;51.162;13.574;2022-07-17T13:26:46;10.20;;;2.20;;
1416;SDS011;703;51.162;13.574;2022-07-17T13:29:11;9.40;;;2.20;;
1416;SDS011;703;51.162;13.574;2022-07-17T13:31:37;9.90;;;2.30;;
1416;SDS011;703;51.162;13.574;2022-07-17T13:34:03;10.00;;;2.80;;
1416;SDS011;703;51.162;13.574;2022-07-17T13:36:28;11.47;;;3.50;;
1416;SDS011;703;51.162;13.574;2022-07-17T13:38:54;8.90;;;2.47;;
1416;SDS011;703;51.162;13.574;2022-07-17T13:41:20;10.20;;;3.37;;
1416;SDS011;703;51.162;13.574;2022-07-17T13:43:47;10.20;;;3.60;;
1416;SDS011;703;51.162;13.574;2022-07-17T13:46:13;10.00;;;3.90;;
1416;SDS011;703;51.162;13.574;2022-07-17T13:48:38;9.30;;;3.57;;
1416;SDS011;703;51.162;13.574;2022-07-17T13:51:04;9.90;;;3.80;;
1416;SDS011;703;51.162;13.574;2022-07-17T13:53:30;13.37;;;5.50;;
1416;SDS011;703;51.162;13.574;2022-07-17T13:55:56;10.30;;;5.20;;
1416;SDS011;703;51.162;13.574;2022-07-17T13:58:22;10.40;;;5.60;;
1416;SDS011;703;51.162;13.574;2022-07-17T14:00:48;11.40;;;4.77;;
1416;SDS011;703;51.162;13.574;2022-07-17T14:03:13;12.70;;;5.33;;
1416;SDS011;703;51.162;13.574;2022-07-17T14:05:39;9.27;;;4.30;;
1416;SDS011;703;51.162;13.574;2022-07-17T14:08:05;11.43;;;5.33;;
1416;SDS011;703;51.162;13.574;2022-07-17T14:10:30;12.07;;;4.57;;
1416;SDS011;703;51.162;13.574;2022-07-17T14:12:56;9.40;;;4.83;;
1416;SDS011;703;51.162;13.574;2022-07-17T14:15:22;10.70;;;4.63;;
1416;SDS011;703;51.162;13.574;2022-07-17T14:17:47;11.00;;;4.20;;
1416;SDS011;703;51.162;13.574;2022-07-17T14:20:13;10.00;;;4.20;;
1416;SDS011;703;51.162;13.574;2022-07-17T14:22:39;10.70;;;3.80;;
1416;SDS011;703;51.162;13.574;2022-07-17T14:25:04;10.20;;;3.63;;
1416;SDS011;703;51.162;13.574;2022-07-17T14:27:30;9.57;;;3.53;;
1416;SDS011;703;51.162;13.574;2022-07-17T14:29:56;10.97;;;3.70;;
1416;SDS011;703;51.162;13.574;2022-07-17T14:32:21;10.43;;;4.17;;
1416;SDS011;703;51.162;13.574;2022-07-17T14:34:47;9.63;;;3.37;;
1416;SDS011;703;51.162;13.574;2022-07-17T14:37:12;11.37;;;3.33;;
1416;SDS011;703;51.162;13.574;2022-07-17T14:39:38;10.90;;;3.10;;
1416;SDS011;703;51.162;13.574;2022-07-17T14:42:03;10.30;;;3.03;;
1416;SDS011;703;51.162;13.574;2022-07-17T14:44:29;11.10;;;3.13;;
1416;SDS011;703;51.162;13.574;2022-07-17T14:46:56;16.73;;;2.90;;
1416;SDS011;703;51.162;13.574;2022-07-17T14:49:23;10.40;;;2.63;;
1416;SDS011;703;51.162;13.574;2022-07-17T14:51:48;11.57;;;3.00;;
1416;SDS011;703;51.162;13.574;2022-07-17T14:54:14;11.60;;;2.97;;
1416;SDS011;703;51.162;13.574;2022-07-17T14:56:39;10.20;;;2.67;;
1416;SDS011;703;51.162;13.574;2022-07-17T14:59:05;22.00;;;3.50;;
1416;SDS011;703;51.162;13.574;2022-07-17T15:01:31;8.93;;;2.23;;
1416;SDS011;703;51.162;13.574;2022-07-17T15:03:56;12.93;;;2.30;;
1416;SDS011;703;51.162;13.574;2022-07-17T15:06:24;13.50;;;2.10;;
1416;SDS011;703;51.162;13.574;2022-07-17T15:08:50;9.63;;;2.60;;
1416;SDS011;703;51.162;13.574;2022-07-17T15:11:15;8.80;;;2.20;;
1416;SDS011;703;51.162;13.574;2022-07-17T15:13:40;10.17;;;1.60;;